Time;durP1;ratioP1;P1;durP2;ratioP2;P2;SDS_P1;SDS_P2;PMS_P1;PMS_P2;Temp;Humidity;BMP_temperature;BMP_pressure;BME280_temperature;BME280_humidity;BME280_pressure;Samples;Min_cycle;Max_cycle;Signal;HPM_P1;HPM_P2
2023/07/30 00:00:56;;;;;;;0.60;0.60;;;;;;;20.43;88.49;99135.59;5095375;28;20089;-60
2023/07/30 00:03:25;;;;;;;7.50;1.25;;;;;;;20.46;88.20;99135.44;5095576;28;20539;-60
2023/07/30 00:05:56;;;;;;;1.00;0.90;;;;;;;20.43;88.23;99128.66;5095208;28;20036;-60
2023/07/30 00:08:25;;;;;;;0.50;0.50;;;;;;;20.42;88.30;99121.78;5095205;28;20040;-60
2023/07/30 00:10:54;;;;;;;0.83;0.83;;;;;;;20.44;88.04;99124.31;5095447;28;20452;-60
2023/07/30 00:13:23;;;;;;;0.60;0.60;;;;;;;20.43;88.24;99122.63;5095070;28;20334;-60
2023/07/30 00:15:52;;;;;;;1.05;0.90;;;;;;;20.37;87.91;99128.13;5095814;28;20043;-60
2023/07/30 00:18:21;;;;;;;1.30;0.88;;;;;;;20.36;87.91;99136.81;5095007;28;20446;-60
2023/07/30 00:20:50;;;;;;;0.50;0.50;;;;;;;20.36;87.93;99144.59;5094947;28;20132;-60
2023/07/30 00:23:21;;;;;;;0.50;0.50;;;;;;;20.37;87.68;99146.28;5095564;28;20047;-60
2023/07/30 00:25:50;;;;;;;1.13;1.02;;;;;;;20.37;87.97;99148.88;5094879;28;20040;-60
2023/07/30 00:28:19;;;;;;;0.50;0.50;;;;;;;20.39;87.67;99152.22;5095105;28;20124;-60
2023/07/30 00:30:48;;;;;;;2.08;0.68;;;;;;;20.40;87.56;99138.34;5095042;28;20289;-60
2023/07/30 00:33:17;;;;;;;1.25;0.73;;;;;;;20.41;87.66;99134.84;5093559;28;20079;-60
2023/07/30 00:35:46;;;;;;;0.88;0.85;;;;;;;20.37;87.50;99138.50;5093797;28;20561;-60
2023/07/30 00:38:15;;;;;;;0.57;0.57;;;;;;;20.38;87.40;99140.16;5093409;28;20052;-59
2023/07/30 00:40:45;;;;;;;;;;;;;;;20.41;87.12;99151.25;5095279;28;20280;-60
2023/07/30 00:43:14;;;;;;;0.50;0.50;;;;;;;20.45;86.95;99146.72;5093400;28;19920;-60
2023/07/30 00:45:45;;;;;;;1.85;1.30;;;;;;;20.43;86.70;99143.38;5094281;28;20058;-59
2023/07/30 00:48:16;;;;;;;1.80;1.10;;;;;;;20.40;86.76;99143.50;5094809;28;20113;-59
2023/07/30 00:50:45;;;;;;;1.35;1.05;;;;;;;20.42;86.77;99132.16;5094084;28;20040;-59
2023/07/30 00:53:15;;;;;;;0.40;0.40;;;;;;;20.41;86.54;99140.03;5094361;28;20046;-59
2023/07/30 00:55:46;;;;;;;1.02;0.95;;;;;;;20.41;86.49;99122.72;5093262;28;20068;-60
2023/07/30 00:58:18;;;;;;;0.40;0.40;;;;;;;20.36;86.11;99126.44;5094312;28;20066;-60
2023/07/30 01:00:48;;;;;;;0.50;0.50;;;;;;;20.32;86.19;99141.31;5076379;28;20044;-60
2023/07/30 01:03:17;;;;;;;0.60;0.60;;;;;;;20.25;86.22;99133.91;5094293;28;20539;-60
2023/07/30 01:05:46;;;;;;;1.45;1.02;;;;;;;20.18;86.28;99124.72;5093068;28;20048;-60
2023/07/30 01:08:15;;;;;;;1.08;1.02;;;;;;;20.08;86.49;99117.38;5093344;28;20036;-60
2023/07/30 01:10:46;;;;;;;1.50;0.98;;;;;;;20.08;86.51;99123.50;5094690;28;20416;-60
2023/07/30 01:13:17;;;;;;;1.48;0.60;;;;;;;20.04;86.56;99123.63;5092791;28;20119;-60
2023/07/30 01:15:47;;;;;;;0.88;0.82;;;;;;;20.02;86.79;99117.69;5094320;28;20047;-60
2023/07/30 01:18:16;;;;;;;0.70;0.70;;;;;;;20.02;86.60;99112.50;5093916;28;20055;-60
2023/07/30 01:20:45;;;;;;;1.65;0.70;;;;;;;20.03;86.88;99124.53;5093932;28;20040;-60
2023/07/30 01:23:15;;;;;;;0.75;0.70;;;;;;;20.03;86.53;99121.94;5094701;28;20474;-60
2023/07/30 01:25:46;;;;;;;0.95;0.85;;;;;;;20.03;86.93;99121.94;5093352;28;20040;-59
2023/07/30 01:28:18;;;;;;;0.65;0.65;;;;;;;20.08;86.93;99120.91;5093170;28;20044;-60
2023/07/30 01:30:48;;;;;;;1.02;0.93;;;;;;;20.10;86.70;99124.25;5094169;28;20040;-60
2023/07/30 01:33:17;;;;;;;;;;;;;;;20.03;86.74;99119.34;5093078;28;20374;-60
2023/07/30 01:35:46;;;;;;;0.77;0.77;;;;;;;20.04;86.65;99112.44;5094425;28;19931;-60
2023/07/30 01:38:17;;;;;;;0.60;0.60;;;;;;;20.04;86.89;99115.00;5093722;28;20044;-60
2023/07/30 01:40:46;;;;;;;0.90;0.90;;;;;;;20.08;87.09;99118.31;5093790;28;20101;-60
2023/07/30 01:43:15;;;;;;;1.40;0.93;;;;;;;20.06;86.57;99118.38;5092755;28;20421;-59
2023/07/30 01:45:44;;;;;;;0.55;0.55;;;;;;;20.05;86.70;99125.31;5093506;28;20123;-60
2023/07/30 01:48:12;;;;;;;2.30;0.70;;;;;;;20.04;86.65;99112.44;5093628;28;20046;-60
2023/07/30 01:50:43;;;;;;;0.60;0.60;;;;;;;20.06;86.52;99108.84;5092348;28;20093;-60
2023/07/30 01:53:12;;;;;;;1.38;1.27;;;;;;;20.12;86.53;99112.06;5093589;28;20045;-59
2023/07/30 01:55:45;;;;;;;0.50;0.50;;;;;;;20.11;86.34;99110.41;5092398;28;20397;-60
2023/07/30 01:58:15;;;;;;;0.70;0.70;;;;;;;20.10;86.22;99100.94;5092918;28;20044;-60
2023/07/30 02:00:45;;;;;;;0.63;0.60;;;;;;;20.08;86.10;99100.19;5092574;28;20048;-60
2023/07/30 02:03:14;;;;;;;0.52;0.52;;;;;;;20.01;86.03;99110.00;5094456;28;20383;-60
2023/07/30 02:05:43;;;;;;;0.85;0.82;;;;;;;19.87;86.02;99107.19;5093780;28;20173;-60
2023/07/30 02:08:13;;;;;;;1.20;1.05;;;;;;;19.84;86.30;99112.56;5092301;28;20035;-60
2023/07/30 02:10:43;;;;;;;0.60;0.60;;;;;;;19.74;86.17;99124.25;5092329;28;20063;-60
2023/07/30 02:13:13;;;;;;;0.40;0.40;;;;;;;19.71;86.57;99132.16;5091788;28;20367;-60
2023/07/30 02:15:43;;;;;;;0.50;0.50;;;;;;;19.70;86.40;99120.94;5092710;28;20508;-60
2023/07/30 02:18:12;;;;;;;0.68;0.68;;;;;;;19.66;86.65;99121.16;5092157;28;20040;-60
2023/07/30 02:20:41;;;;;;;1.15;1.05;;;;;;;19.62;86.65;99111.88;5093245;28;20051;-60
2023/07/30 02:23:10;;;;;;;0.60;0.60;;;;;;;19.65;87.15;99112.56;5093316;28;20051;-60
2023/07/30 02:25:39;;;;;;;1.65;0.80;;;;;;;19.61;87.18;99120.53;5096417;28;20067;-60
2023/07/30 02:28:10;;;;;;;0.45;0.45;;;;;;;19.57;86.98;99125.03;5097116;28;20120;-60
2023/07/30 02:30:42;;;;;;;0.57;0.57;;;;;;;19.53;87.21;99120.88;5097121;28;20048;-60
2023/07/30 02:33:11;;;;;;;0.50;0.50;;;;;;;19.55;87.33;99126.00;5097021;28;20063;-60
2023/07/30 02:35:39;;;;;;;0.70;0.70;;;;;;;19.56;87.25;99120.75;5097015;28;20781;-60
2023/07/30 02:38:08;;;;;;;0.60;0.60;;;;;;;19.52;87.24;99111.47;5097053;28;20040;-60
2023/07/30 02:40:37;;;;;;;0.88;0.88;;;;;;;19.52;87.27;99114.06;5095931;28;20029;-60
2023/07/30 02:43:06;;;;;;;1.73;1.30;;;;;;;19.54;87.39;99108.78;5095707;28;20044;-60
2023/07/30 02:45:37;;;;;;;0.40;0.40;;;;;;;19.48;87.59;99107.34;5096781;28;20119;-60
2023/07/30 02:48:06;;;;;;;1.15;1.05;;;;;;;19.51;87.58;99119.31;5095636;28;20397;-60
2023/07/30 02:50:35;;;;;;;0.75;0.75;;;;;;;19.48;87.76;99115.09;5096852;28;20044;-60
2023/07/30 02:53:04;;;;;;;0.70;0.70;;;;;;;19.45;87.93;99104.88;5095448;28;20119;-60
2023/07/30 02:55:33;;;;;;;0.53;0.53;;;;;;;19.40;88.13;99106.84;5095493;28;20059;-60
2023/07/30 02:58:01;;;;;;;2.80;1.05;;;;;;;19.44;88.43;99108.38;5096901;28;20036;-60
2023/07/30 03:00:30;;;;;;;0.60;0.60;;;;;;;19.47;88.29;99108.25;5096879;28;20044;-60
2023/07/30 03:03:01;;;;;;;;;;;;;;;19.47;88.51;99103.06;5096885;28;20040;-60
2023/07/30 03:05:30;;;;;;;0.63;0.60;;;;;;;19.53;88.64;99102.75;5095457;28;19947;-60
2023/07/30 03:07:59;;;;;;;0.90;0.70;;;;;;;19.63;88.66;99092.81;5095548;28;20478;-60
2023/07/30 03:10:28;;;;;;;0.80;0.80;;;;;;;19.67;88.44;99084.88;5095554;28;20123;-60
2023/07/30 03:12:57;;;;;;;0.60;0.60;;;;;;;19.71;88.29;99098.50;5096169;28;20040;-60
2023/07/30 03:15:25;;;;;;;1.65;0.88;;;;;;;19.74;88.24;99104.38;5096594;28;20036;-60
2023/07/30 03:17:55;;;;;;;0.70;0.70;;;;;;;19.77;87.92;99101.63;5096288;28;20044;-60
2023/07/30 03:20:25;;;;;;;1.60;1.50;;;;;;;19.79;88.03;99107.59;5095014;28;20044;-60
2023/07/30 03:22:55;;;;;;;1.00;0.90;;;;;;;19.80;87.79;99101.47;5096090;28;20066;-60
2023/07/30 03:25:25;;;;;;;0.98;0.93;;;;;;;19.85;87.49;99098.69;5095085;28;20466;-60
2023/07/30 03:27:54;;;;;;;0.95;0.57;;;;;;;19.85;87.23;99102.09;5096094;28;20064;-60
2023/07/30 03:30:22;;;;;;;0.80;0.80;;;;;;;19.87;87.19;99108.06;5096286;28;20375;-60
2023/07/30 03:32:51;;;;;;;0.57;0.57;;;;;;;19.89;87.09;99105.41;5077823;28;20135;-60
2023/07/30 03:35:21;;;;;;;0.95;0.93;;;;;;;19.88;87.13;99104.56;5095566;28;20570;-60
2023/07/30 03:37:52;;;;;;;1.00;1.00;;;;;;;19.89;86.69;99114.00;5094625;28;20036;-60
2023/07/30 03:40:21;;;;;;;0.93;0.90;;;;;;;19.90;86.85;99117.44;5095855;28;20360;-60
2023/07/30 03:42:50;;;;;;;1.10;1.00;;;;;;;19.90;86.92;99107.06;5094536;28;20504;-60
2023/07/30 03:45:19;;;;;;;0.80;0.80;;;;;;;19.94;86.58;99111.19;5095452;28;20059;-60
2023/07/30 03:47:48;;;;;;;1.48;1.05;;;;;;;19.95;86.44;99110.28;5095998;28;20139;-60
2023/07/30 03:50:17;;;;;;;0.57;0.57;;;;;;;19.89;86.50;99101.03;5095886;28;20035;-60
2023/07/30 03:52:49;;;;;;;0.50;0.50;;;;;;;19.88;86.48;99099.38;5096200;28;20043;-60
2023/07/30 03:55:19;;;;;;;1.10;0.70;;;;;;;19.90;86.55;99105.31;5095404;28;20048;-60
2023/07/30 03:57:48;;;;;;;0.50;0.50;;;;;;;19.93;86.54;99092.22;5094288;28;20051;-60
2023/07/30 04:00:17;;;;;;;1.00;1.00;;;;;;;19.93;86.75;99102.59;5095698;28;20502;-60
2023/07/30 04:02:46;;;;;;;3.58;0.80;;;;;;;19.90;86.52;99107.91;5095332;28;20036;-61
2023/07/30 04:05:15;;;;;;;0.80;0.80;;;;;;;19.92;86.58;99110.41;5095250;28;20123;-60
2023/07/30 04:07:44;;;;;;;2.92;0.90;;;;;;;19.89;86.76;99111.41;5094821;28;20040;-60
2023/07/30 04:10:13;;;;;;;0.80;0.80;;;;;;;19.90;86.92;99110.50;5095467;28;20040;-60
2023/07/30 04:12:43;;;;;;;2.93;1.37;;;;;;;19.94;86.88;99112.03;5093914;28;20284;-60
2023/07/30 04:15:12;;;;;;;2.97;1.27;;;;;;;19.95;86.85;99111.13;5094167;28;20706;-60
2023/07/30 04:17:41;;;;;;;0.65;0.63;;;;;;;19.96;86.94;99107.59;5093987;28;20038;-60
2023/07/30 04:20:10;;;;;;;;;;;;;;;19.94;86.78;99106.84;5095521;28;20409;-60
2023/07/30 04:22:41;;;;;;;1.08;0.95;;;;;;;19.93;86.89;99117.28;5093774;28;19924;-60
2023/07/30 04:25:11;;;;;;;0.80;0.77;;;;;;;19.92;86.99;99120.78;5095172;28;20048;-60
2023/07/30 04:27:40;;;;;;;1.13;1.00;;;;;;;19.97;87.06;99119.66;5094317;28;20043;-60
2023/07/30 04:30:12;;;;;;;1.00;0.75;;;;;;;20.05;87.08;99116.72;5095166;28;20566;-61
2023/07/30 04:32:41;;;;;;;0.60;0.60;;;;;;;20.10;87.01;99124.25;5095122;28;20040;-61
2023/07/30 04:35:10;;;;;;;1.98;1.27;;;;;;;20.14;87.00;99123.19;5093777;28;20110;-61
2023/07/30 04:37:40;;;;;;;0.77;0.77;;;;;;;20.18;86.98;99122.16;5093882;28;20422;-61
2023/07/30 04:40:10;;;;;;;2.05;0.95;;;;;;;20.16;87.14;99129.13;5093445;28;20494;-62
2023/07/30 04:42:39;;;;;;;1.38;1.05;;;;;;;20.16;87.23;99124.78;5094575;28;20071;-62
2023/07/30 04:45:10;;;;;;;0.70;0.70;;;;;;;20.19;86.92;99129.84;5094318;28;20036;-62
2023/07/30 04:47:43;;;;;;;0.98;0.93;;;;;;;20.21;86.92;99129.75;5094481;28;20504;-62
2023/07/30 04:50:12;;;;;;;0.57;0.57;;;;;;;20.24;86.84;99129.63;5094559;28;20465;-62
2023/07/30 04:52:43;;;;;;;3.17;1.38;;;;;;;20.21;86.57;99138.38;5094456;28;20036;-62
2023/07/30 04:55:12;;;;;;;1.05;0.93;;;;;;;20.22;86.55;99137.50;5094366;28;20036;-62
2023/07/30 04:57:41;;;;;;;0.73;0.70;;;;;;;20.29;86.69;99146.66;5094378;28;20048;-61
2023/07/30 05:00:13;;;;;;;2.72;1.42;;;;;;;20.32;86.24;99145.66;5093315;28;20038;-61
2023/07/30 05:02:43;;;;;;;1.30;0.95;;;;;;;20.36;86.54;99148.03;5094551;28;20429;-60
2023/07/30 05:05:12;;;;;;;1.02;0.93;;;;;;;20.41;86.47;99147.81;5094218;28;20043;-60
2023/07/30 05:07:41;;;;;;;0.75;0.75;;;;;;;20.45;86.22;99157.09;5094131;28;20446;-62
2023/07/30 05:10:10;;;;;;;0.68;0.68;;;;;;;20.48;86.35;99151.78;5095194;28;20044;-62
2023/07/30 05:12:39;;;;;;;3.28;0.70;;;;;;;20.53;85.95;99149.78;5094518;28;20109;-62
2023/07/30 05:15:09;;;;;;;0.70;0.70;;;;;;;20.55;85.66;99153.16;5094011;28;20036;-62
2023/07/30 05:17:39;;;;;;;0.50;0.50;;;;;;;20.55;85.44;99150.53;5093946;28;20131;-62
2023/07/30 05:20:09;;;;;;;0.93;0.93;;;;;;;20.57;85.44;99148.72;5093960;28;20135;-61
2023/07/30 05:22:39;;;;;;;2.85;1.48;;;;;;;20.57;85.45;99148.72;5093929;28;20036;-61
2023/07/30 05:25:09;;;;;;;0.75;0.70;;;;;;;20.58;85.32;99147.81;5093865;28;20039;-61
2023/07/30 05:27:37;;;;;;;0.80;0.75;;;;;;;20.58;85.52;99153.00;5093778;28;20135;-62
2023/07/30 05:30:08;;;;;;;0.90;0.80;;;;;;;20.61;85.51;99147.66;5093904;28;20044;-59
2023/07/30 05:32:36;;;;;;;1.92;1.73;;;;;;;20.61;85.63;99143.28;5093742;28;20299;-61
2023/07/30 05:35:08;;;;;;;1.20;0.73;;;;;;;20.64;85.36;99142.31;5093716;28;20123;-61
2023/07/30 05:37:36;;;;;;;1.00;0.88;;;;;;;20.66;85.28;99140.47;5093952;28;20702;-61
2023/07/30 05:40:07;;;;;;;0.50;0.50;;;;;;;20.67;85.40;99136.97;5094073;28;20390;-61
2023/07/30 05:42:36;;;;;;;3.83;1.05;;;;;;;20.69;85.20;99135.13;5092748;28;20488;-61
2023/07/30 05:45:06;;;;;;;2.83;1.53;;;;;;;20.73;85.40;99144.47;5093372;28;20036;-62
2023/07/30 05:47:35;;;;;;;0.65;0.65;;;;;;;20.78;85.27;99139.84;5093599;28;20784;-62
2023/07/30 05:50:04;;;;;;;1.27;1.08;;;;;;;20.86;84.94;99142.06;5093718;28;20128;-62
2023/07/30 05:52:34;;;;;;;0.50;0.50;;;;;;;20.89;84.59;99142.75;5092559;28;20037;-61
2023/07/30 05:55:03;;;;;;;0.90;0.70;;;;;;;20.88;84.74;99146.25;5093526;28;20044;-61
2023/07/30 05:57:32;;;;;;;2.35;1.42;;;;;;;20.91;84.44;99138.31;5093684;28;20036;-62
2023/07/30 06:00:01;;;;;;;0.70;0.63;;;;;;;20.92;84.39;99142.59;5097432;28;20134;-62
2023/07/30 06:02:39;;;;;;;0.55;0.55;;;;;;;20.95;84.18;99146.78;5098377;28;20460;-62
2023/07/30 06:05:09;;;;;;;2.78;2.15;;;;;;;21.03;84.32;99149.81;5097625;28;20124;-62
2023/07/30 06:07:38;;;;;;;;;;;;;;;21.12;84.30;99145.03;5097553;28;20036;-62
2023/07/30 06:10:08;;;;;;;0.80;0.80;;;;;;;21.18;84.19;99152.50;5096559;28;19927;-62
2023/07/30 06:12:37;;;;;;;0.73;0.73;;;;;;;21.22;84.06;99151.41;5097419;28;20044;-62
2023/07/30 06:15:08;;;;;;;0.65;0.65;;;;;;;21.26;83.91;99152.94;5097808;28;20044;-62
2023/07/30 06:17:37;;;;;;;0.60;0.60;;;;;;;21.27;83.54;99157.22;5097578;28;20058;-62
2023/07/30 06:20:07;;;;;;;0.60;0.60;;;;;;;21.30;83.21;99154.47;5095872;28;20524;-62
2023/07/30 06:22:36;;;;;;;1.20;0.93;;;;;;;21.32;83.19;99147.44;5097392;28;20040;-62
2023/07/30 06:25:07;;;;;;;0.90;0.85;;;;;;;21.38;82.91;99140.22;5097732;28;20428;-62
2023/07/30 06:27:36;;;;;;;1.23;0.93;;;;;;;21.38;82.96;99141.88;5097356;28;20123;-62
2023/07/30 06:30:06;;;;;;;0.67;0.60;;;;;;;21.45;82.54;99141.59;5097116;28;20044;-62
2023/07/30 06:32:35;;;;;;;0.82;0.82;;;;;;;21.56;82.42;99141.84;5096774;28;20048;-60
2023/07/30 06:35:05;;;;;;;1.08;0.90;;;;;;;21.66;82.32;99145.63;5097116;28;20097;-62
2023/07/30 06:37:33;;;;;;;;;;;;;;;21.71;82.09;99149.66;5097410;28;20059;-62
2023/07/30 06:40:06;;;;;;;0.52;0.52;;;;;;;21.75;82.02;99139.91;5095887;28;19920;-62
2023/07/30 06:42:36;;;;;;;0.65;0.65;;;;;;;21.80;81.56;99132.69;5097219;28;20089;-62
2023/07/30 06:45:06;;;;;;;0.52;0.50;;;;;;;21.81;81.59;99134.41;5096958;28;20044;-62
2023/07/30 06:47:35;;;;;;;0.80;0.80;;;;;;;21.86;81.40;99137.59;5096686;28;20044;-62
2023/07/30 06:50:08;;;;;;;0.55;0.55;;;;;;;21.90;80.94;99141.72;5096767;28;20131;-62
2023/07/30 06:52:37;;;;;;;0.40;0.40;;;;;;;21.91;80.79;99140.75;5097023;28;20051;-62
2023/07/30 06:55:06;;;;;;;0.82;0.57;;;;;;;21.94;80.58;99130.22;5096560;28;20036;-62
2023/07/30 06:57:36;;;;;;;;;;;;;;;22.00;80.21;99127.28;5097356;28;20047;-62
2023/07/30 07:00:06;;;;;;;1.30;1.00;;;;;;;22.07;80.04;99136.41;5078662;28;19920;-62
2023/07/30 07:02:35;;;;;;;1.58;0.82;;;;;;;22.15;79.81;99142.00;5097199;28;20034;-62
2023/07/30 07:05:05;;;;;;;1.17;1.08;;;;;;;22.23;79.44;99150.22;5096711;28;20089;-61
2023/07/30 07:07:34;;;;;;;0.95;0.85;;;;;;;22.24;79.12;99148.47;5096494;28;20044;-61
2023/07/30 07:10:03;;;;;;;0.85;0.80;;;;;;;22.30;79.04;99148.09;5095521;28;20040;-62
2023/07/30 07:12:31;;;;;;;1.10;0.82;;;;;;;22.35;78.77;99152.13;5095954;28;20040;-62
2023/07/30 07:15:06;;;;;;;1.00;0.90;;;;;;;22.40;78.58;99149.25;5096225;28;20044;-62
2023/07/30 07:17:35;;;;;;;0.60;0.60;;;;;;;22.45;78.28;99142.88;5096784;28;20059;-61
2023/07/30 07:20:06;;;;;;;4.80;1.58;;;;;;;22.50;78.11;99153.84;5096555;28;20047;-62
2023/07/30 07:22:35;;;;;;;0.77;0.70;;;;;;;22.54;77.78;99157.09;5096471;28;20392;-61
2023/07/30 07:25:19;;;;;;;1.20;0.88;;;;;;;22.64;77.86;99161.72;5096164;28;20040;-62
2023/07/30 07:27:47;;;;;;;1.38;0.73;;;;;;;22.67;77.59;99161.53;5094959;28;20497;-61
2023/07/30 07:30:18;;;;;;;2.20;1.40;;;;;;;22.71;77.40;99170.00;5096277;28;20036;-61
2023/07/30 07:32:50;;;;;;;0.85;0.63;;;;;;;22.80;77.00;99163.41;5096645;28;20280;-61
2023/07/30 07:35:21;;;;;;;0.68;0.68;;;;;;;22.77;76.71;99168.81;5095803;28;20044;-61
2023/07/30 07:37:50;;;;;;;1.00;0.60;;;;;;;22.80;76.75;99179.88;5095946;28;20047;-61
2023/07/30 07:40:19;;;;;;;0.70;0.70;;;;;;;22.90;76.63;99174.97;5096052;28;20206;-61
2023/07/30 07:42:48;;;;;;;0.50;0.50;;;;;;;23.01;76.97;99178.59;5095697;28;20125;-61
2023/07/30 07:45:18;;;;;;;0.50;0.50;;;;;;;23.09;76.70;99185.97;5095737;28;20048;-62
2023/07/30 07:47:48;;;;;;;0.63;0.63;;;;;;;23.09;76.80;99179.00;5095704;28;20105;-61
2023/07/30 07:50:17;;;;;;;0.60;0.60;;;;;;;23.15;76.65;99185.63;5095967;28;20075;-61
2023/07/30 07:52:45;;;;;;;1.17;0.93;;;;;;;23.19;76.16;99181.88;5095524;28;20119;-61
2023/07/30 07:55:15;;;;;;;0.63;0.60;;;;;;;23.14;75.90;99178.72;5095750;28;20512;-61
2023/07/30 07:57:44;;;;;;;1.98;1.25;;;;;;;23.13;75.75;99182.25;5095414;28;20039;-61
2023/07/30 08:00:13;;;;;;;0.70;0.70;;;;;;;23.07;75.57;99180.00;5095327;28;20050;-61
2023/07/30 08:02:44;;;;;;;0.90;0.80;;;;;;;23.07;75.37;99177.41;5095476;28;20089;-61
2023/07/30 08:05:13;;;;;;;1.10;0.95;;;;;;;23.05;75.25;99179.28;5095480;28;20447;-61
2023/07/30 08:07:41;;;;;;;0.65;0.65;;;;;;;23.06;75.10;99180.97;5099759;28;20043;-61
2023/07/30 08:10:11;;;;;;;0.93;0.90;;;;;;;23.09;75.05;99185.97;5103347;28;20035;-61
2023/07/30 08:12:39;;;;;;;0.47;0.47;;;;;;;23.15;74.63;99185.63;5103704;28;20428;-61
2023/07/30 08:15:08;;;;;;;1.02;0.95;;;;;;;23.20;74.65;99188.78;5102786;28;20040;-62
2023/07/30 08:17:37;;;;;;;0.70;0.70;;;;;;;23.21;74.80;99187.84;5105064;28;20039;-62
2023/07/30 08:20:08;;;;;;;0.95;0.80;;;;;;;23.17;75.21;99194.16;5105995;28;20024;-62
2023/07/30 08:22:38;;;;;;;0.68;0.68;;;;;;;23.17;75.13;99191.56;5103707;28;20051;-61
2023/07/30 08:25:08;;;;;;;0.70;0.70;;;;;;;23.21;75.53;99206.06;5103523;28;20037;-62
2023/07/30 08:27:36;;;;;;;0.75;0.75;;;;;;;23.23;75.38;99204.19;5104806;28;20280;-62
2023/07/30 08:30:06;;;;;;;1.13;0.70;;;;;;;23.27;75.49;99200.50;5105825;28;20750;-62
2023/07/30 08:32:35;;;;;;;2.25;1.08;;;;;;;23.30;75.47;99195.94;5104059;28;20036;-62
2023/07/30 08:35:10;;;;;;;0.85;0.75;;;;;;;23.30;75.35;99200.28;5103598;28;20363;-62
2023/07/30 08:37:39;;;;;;;1.05;0.85;;;;;;;23.32;75.32;99208.88;5099514;28;20066;-62
2023/07/30 08:40:09;;;;;;;0.97;0.90;;;;;;;23.31;75.40;99208.03;5112367;28;20100;-62
2023/07/30 08:42:38;;;;;;;0.50;0.50;;;;;;;23.36;75.38;99205.19;5115276;28;20508;-61
2023/07/30 08:45:09;;;;;;;0.98;0.77;;;;;;;23.34;75.49;99196.59;5115034;28;20032;-62
2023/07/30 08:47:40;;;;;;;0.80;0.80;;;;;;;23.33;75.05;99194.91;5115116;28;20374;-62
2023/07/30 08:50:12;;;;;;;0.47;0.47;;;;;;;23.36;75.22;99192.16;5115412;28;20521;-62
2023/07/30 08:52:41;;;;;;;1.50;0.68;;;;;;;23.38;75.27;99187.69;5114785;28;20043;-62
2023/07/30 08:55:13;;;;;;;0.70;0.70;;;;;;;23.40;74.70;99198.84;5114661;28;20047;-62
2023/07/30 08:57:45;;;;;;;0.50;0.50;;;;;;;23.41;74.43;99192.72;5114712;28;20050;-62
2023/07/30 09:00:18;;;;;;;0.85;0.85;;;;;;;23.44;74.15;99197.75;5115090;28;20051;-61
2023/07/30 09:02:50;;;;;;;0.70;0.70;;;;;;;23.48;73.46;99194.03;5115024;28;20051;-62
2023/07/30 09:05:22;;;;;;;0.60;0.60;;;;;;;23.47;73.20;99194.94;5114627;28;20056;-62
2023/07/30 09:07:51;;;;;;;0.60;0.60;;;;;;;23.50;72.53;99197.38;5113442;28;20051;-62
2023/07/30 09:10:20;;;;;;;0.52;0.52;;;;;;;23.57;71.98;99203.88;5114412;28;20039;-62
2023/07/30 09:12:53;;;;;;;;;;;;;;;23.66;71.80;99203.31;5115144;28;20569;-61
2023/07/30 09:15:31;;;;;;;0.60;0.60;;;;;;;23.68;71.51;99201.44;5114342;28;20022;-61
2023/07/30 09:18:00;;;;;;;0.52;0.52;;;;;;;23.75;71.22;99200.16;5113017;28;20142;-62
2023/07/30 09:20:38;;;;;;;0.50;0.50;;;;;;;23.81;71.01;99197.16;5113727;28;20071;-61
2023/07/30 09:23:07;;;;;;;0.60;0.60;;;;;;;23.89;70.59;99199.28;5113307;28;20048;-61
2023/07/30 09:25:36;;;;;;;0.55;0.55;;;;;;;23.86;70.07;99192.50;5113832;28;20550;-61
2023/07/30 09:28:07;;;;;;;0.57;0.57;;;;;;;23.85;69.69;99187.38;5114520;28;20039;-62
2023/07/30 09:30:36;;;;;;;0.73;0.73;;;;;;;23.87;69.16;99191.53;5114009;28;20089;-61
2023/07/30 09:33:04;;;;;;;1.40;0.83;;;;;;;23.90;68.21;99180.94;5114114;28;20039;-62
2023/07/30 09:35:35;;;;;;;0.50;0.50;;;;;;;23.95;67.53;99178.88;5114213;28;20683;-62
2023/07/30 09:38:04;;;;;;;0.65;0.65;;;;;;;23.97;67.38;99171.78;5114666;28;20047;-62
2023/07/30 09:40:34;;;;;;;;;;;;;;;23.97;67.38;99174.38;5114333;28;20043;-62
2023/07/30 09:43:04;;;;;;;1.23;0.93;;;;;;;23.93;67.07;99175.53;5114021;28;19923;-62
2023/07/30 09:45:36;;;;;;;0.75;0.70;;;;;;;23.91;67.19;99177.41;5113763;28;20043;-62
2023/07/30 09:48:07;;;;;;;0.45;0.45;;;;;;;23.87;67.09;99186.31;5114320;28;20504;-61
2023/07/30 09:50:38;;;;;;;0.50;0.50;;;;;;;23.81;67.25;99183.28;5114503;28;20043;-61
2023/07/30 09:53:09;;;;;;;0.40;0.40;;;;;;;23.72;67.26;99182.09;5113971;28;20153;-61
2023/07/30 09:55:38;;;;;;;0.40;0.40;;;;;;;23.68;67.35;99187.59;5114033;28;20044;-62
2023/07/30 09:58:10;;;;;;;0.60;0.60;;;;;;;23.62;67.73;99188.78;5114158;28;20032;-62
2023/07/30 10:00:40;;;;;;;4.32;1.63;;;;;;;23.59;68.12;99193.34;5113974;28;20063;-62
2023/07/30 10:03:08;;;;;;;;;;;;;;;23.57;68.42;99188.25;5114217;28;20040;-61
2023/07/30 10:05:42;;;;;;;0.68;0.68;;;;;;;23.57;68.61;99183.03;5114155;28;20006;-62
2023/07/30 10:08:18;;;;;;;1.40;0.65;;;;;;;23.56;69.19;99186.59;5114686;28;20048;-62
2023/07/30 10:10:47;;;;;;;1.17;0.88;;;;;;;23.54;69.51;99188.41;5113761;28;20054;-62
2023/07/30 10:13:18;;;;;;;0.63;0.60;;;;;;;23.51;70.34;99193.00;5113721;28;20054;-61
2023/07/30 10:15:50;;;;;;;1.83;1.25;;;;;;;23.43;71.13;99190.00;5113864;28;20035;-62
2023/07/30 10:18:21;;;;;;;0.75;0.75;;;;;;;23.33;72.10;99197.50;5113952;28;20084;-62
2023/07/30 10:20:57;;;;;;;0.50;0.50;;;;;;;23.19;73.17;99193.16;5114164;28;20105;-63
2023/07/30 10:23:29;;;;;;;4.25;0.50;;;;;;;23.03;74.27;99191.53;5113981;28;20051;-63
2023/07/30 10:25:58;;;;;;;0.60;0.60;;;;;;;22.93;75.56;99196.47;5113677;28;20100;-63
2023/07/30 10:28:36;;;;;;;0.88;0.88;;;;;;;22.80;76.45;99200.69;5113546;28;20048;-63
2023/07/30 10:31:09;;;;;;;0.60;0.60;;;;;;;22.67;77.21;99197.94;5113641;28;20051;-63
2023/07/30 10:33:46;;;;;;;2.20;1.17;;;;;;;22.59;77.86;99192.34;5113968;28;20039;-63
2023/07/30 10:36:19;;;;;;;1.52;0.60;;;;;;;22.47;78.90;99198.25;5113719;28;20040;-63
2023/07/30 10:38:48;;;;;;;0.60;0.60;;;;;;;22.33;80.02;99199.94;5113536;28;20058;-62
2023/07/30 10:41:17;;;;;;;1.45;1.33;;;;;;;22.22;81.07;99197.94;5113473;28;20040;-62
2023/07/30 10:43:50;;;;;;;0.60;0.60;;;;;;;22.15;81.89;99191.41;5113687;28;20043;-62
2023/07/30 10:46:20;;;;;;;0.47;0.47;;;;;;;22.12;82.54;99191.59;5115589;28;20101;-62
2023/07/30 10:48:49;;;;;;;1.80;1.50;;;;;;;22.10;83.19;99188.22;5117518;28;20040;-63
2023/07/30 10:51:22;;;;;;;1.73;1.33;;;;;;;22.11;84.01;99189.91;5117463;28;20421;-64
2023/07/30 10:53:52;;;;;;;0.85;0.77;;;;;;;22.18;84.53;99191.22;5117583;28;20096;-63
2023/07/30 10:56:25;;;;;;;0.70;0.70;;;;;;;22.28;85.43;99187.19;5116989;28;20036;-63
2023/07/30 10:58:56;;;;;;;1.27;1.13;;;;;;;22.37;85.81;99184.06;5117468;28;20040;-64
2023/07/30 11:01:27;;;;;;;0.50;0.50;;;;;;;22.48;86.11;99189.50;5117489;28;20044;-64
2023/07/30 11:03:56;;;;;;;1.27;1.15;;;;;;;22.59;86.33;99187.13;5117225;28;20043;-64
2023/07/30 11:06:28;;;;;;;1.60;1.10;;;;;;;22.64;86.18;99189.50;5117035;28;20066;-63
2023/07/30 11:08:56;;;;;;;1.05;0.95;;;;;;;22.68;86.12;99191.84;5116869;28;20048;-63
2023/07/30 11:11:25;;;;;;;0.60;0.60;;;;;;;22.74;85.92;99200.22;5116710;28;20045;-63
2023/07/30 11:13:54;;;;;;;0.60;0.60;;;;;;;22.73;85.71;99201.13;5117364;28;20071;-63
2023/07/30 11:16:23;;;;;;;0.73;0.73;;;;;;;22.82;85.39;99191.03;5116573;27;20043;-64
2023/07/30 11:18:53;;;;;;;0.68;0.68;;;;;;;22.86;85.18;99189.09;5116627;28;20097;-64
2023/07/30 11:21:22;;;;;;;0.73;0.57;;;;;;;22.93;84.93;99195.63;5116969;28;20048;-64
2023/07/30 11:23:52;;;;;;;0.60;0.60;;;;;;;22.95;84.35;99199.81;5116493;28;20036;-64
2023/07/30 11:26:21;;;;;;;4.30;0.60;;;;;;;22.94;83.62;99198.13;5116528;27;20044;-64
2023/07/30 11:28:50;;;;;;;0.50;0.50;;;;;;;22.99;83.04;99195.22;5115531;28;20443;-64
2023/07/30 11:31:21;;;;;;;0.60;0.60;;;;;;;22.99;82.62;99190.03;5116468;28;20045;-64
2023/07/30 11:33:52;;;;;;;1.25;1.15;;;;;;;23.08;82.28;99189.50;5116898;28;20043;-64
2023/07/30 11:36:24;;;;;;;1.08;0.98;;;;;;;23.00;81.62;99189.13;5116213;28;20039;-64
2023/07/30 11:38:55;;;;;;;0.65;0.65;;;;;;;23.00;81.42;99183.91;5116956;28;20511;-64
2023/07/30 11:41:25;;;;;;;0.60;0.60;;;;;;;23.03;81.03;99186.34;5116726;28;20043;-64
2023/07/30 11:43:55;;;;;;;0.80;0.80;;;;;;;23.03;79.97;99186.34;5116145;28;20040;-64
2023/07/30 11:46:24;;;;;;;0.70;0.70;;;;;;;23.10;79.78;99180.69;5116076;28;20519;-64
2023/07/30 11:49:11;;;;;;;1.75;0.95;;;;;;;23.20;79.62;99188.78;5116407;28;20469;-63